Terminal Aerodrome Forecast
Issued by NWS

Home | Current Version | Previous Version | Text Only | Print | Product List | Glossary On
Versions: 1 2 3 4 5 6 7 8 9 10 11 12 13 14 15 16 17 18 19 20
000
FTUS44 KMAF 231739
TAFINK
TAF
KINK 231739Z 2318/2418 34010KT P6SM SKC
     FM232200 03012G18KT P6SM FEW250
     FM240300 05015G24KT P6SM FEW250
     FM241000 03011KT P6SM FEW250=

USA.gov is the U.S. government's official web portal to all federal, state and local government web resources and services.